Time;durP1;ratioP1;P1;durP2;ratioP2;P2;SDS_P1;SDS_P2;PMS_P1;PMS_P2;Temp;Humidity;BMP_temperature;BMP_pressure;BME280_temperature;BME280_humidity;BME280_pressure;Samples;Min_cycle;Max_cycle;Signal;HPM_P1;HPM_P2
2022/02/18 00:00:05;;;;;;;7.15;1.98;;;;;;;;;;5070528;28;20028;-50
2022/02/18 00:02:31;;;;;;;3.13;1.50;;;;;;;;;;5071039;28;20032;-49
2022/02/18 00:04:57;;;;;;;3.88;1.60;;;;;;;;;;5070778;28;20028;-55
2022/02/18 00:07:23;;;;;;;4.82;1.67;;;;;;;;;;5071529;28;20028;-51
2022/02/18 00:09:49;;;;;;;4.63;1.50;;;;;;;;;;5075261;28;20075;-50
2022/02/18 00:12:15;;;;;;;5.53;1.77;;;;;;;;;;5074328;28;20036;-51
2022/02/18 00:14:41;;;;;;;7.60;1.50;;;;;;;;;;5074946;28;20090;-52
2022/02/18 00:17:07;;;;;;;5.45;1.65;;;;;;;;;;5074041;28;20465;-50
2022/02/18 00:19:34;;;;;;;3.90;1.65;;;;;;;;;;5074921;28;20036;-49
2022/02/18 00:22:01;;;;;;;5.07;1.50;;;;;;;;;;5074020;28;20028;-52
2022/02/18 00:24:26;;;;;;;5.13;1.80;;;;;;;;;;5074529;28;20012;-49
2022/02/18 00:26:52;;;;;;;3.75;1.60;;;;;;;;;;5075164;28;20036;-50
2022/02/18 00:29:18;;;;;;;3.83;1.70;;;;;;;;;;5073872;28;20108;-50
2022/02/18 00:31:44;;;;;;;4.93;1.60;;;;;;;;;;5074711;28;20112;-50
2022/02/18 00:34:10;;;;;;;4.75;1.58;;;;;;;;;;5073767;28;20024;-51
2022/02/18 00:36:36;;;;;;;5.55;1.45;;;;;;;;;;5074737;28;20036;-51
2022/02/18 00:39:03;;;;;;;4.47;1.58;;;;;;;;;;5073195;28;20048;-50
2022/02/18 00:41:29;;;;;;;3.95;1.77;;;;;;;;;;5074599;28;20028;-51
2022/02/18 00:43:55;;;;;;;3.55;1.50;;;;;;;;;;5074688;28;20373;-52
2022/02/18 00:46:21;;;;;;;3.28;1.98;;;;;;;;;;5073700;28;20040;-50
2022/02/18 00:48:47;;;;;;;5.60;1.50;;;;;;;;;;5074615;28;20031;-52
2022/02/18 00:51:13;;;;;;;5.57;2.20;;;;;;;;;;5073555;28;20025;-52
2022/02/18 00:53:39;;;;;;;4.00;1.20;;;;;;;;;;5074434;28;20388;-52
2022/02/18 00:56:05;;;;;;;5.07;1.75;;;;;;;;;;5073364;28;20385;-52
2022/02/18 00:58:31;;;;;;;5.65;1.77;;;;;;;;;;5073893;28;20043;-53
2022/02/18 01:00:57;;;;;;;5.78;1.90;;;;;;;;;;5074005;28;20032;-55
2022/02/18 01:03:23;;;;;;;5.53;1.98;;;;;;;;;;5074327;28;20489;-51
2022/02/18 01:05:49;;;;;;;5.15;2.17;;;;;;;;;;5073991;28;20071;-50
2022/02/18 01:08:15;;;;;;;3.53;1.60;;;;;;;;;;5073516;28;20456;-53
2022/02/18 01:10:41;;;;;;;4.63;1.85;;;;;;;;;;5073990;28;20028;-51
2022/02/18 01:13:07;;;;;;;3.53;1.25;;;;;;;;;;5073236;28;20021;-51
2022/02/18 01:15:34;;;;;;;4.88;1.42;;;;;;;;;;5073820;28;20021;-49
2022/02/18 01:18:00;;;;;;;5.63;1.77;;;;;;;;;;5073400;28;20470;-55
2022/02/18 01:20:26;;;;;;;5.80;1.80;;;;;;;;;;5073648;28;20039;-48
2022/02/18 01:22:52;;;;;;;4.80;1.38;;;;;;;;;;5073560;28;20031;-48
2022/02/18 01:25:18;;;;;;;2.10;1.10;;;;;;;;;;5072427;28;20056;-48
2022/02/18 01:27:44;;;;;;;5.75;1.40;;;;;;;;;;5073623;28;20024;-48
2022/02/18 01:30:10;;;;;;;4.53;1.92;;;;;;;;;;5073057;28;20480;-50
2022/02/18 01:32:37;;;;;;;3.80;1.40;;;;;;;;;;5073665;28;20055;-53
2022/02/18 01:35:03;;;;;;;4.95;1.13;;;;;;;;;;5072637;28;20028;-50
2022/02/18 01:37:29;;;;;;;3.28;1.35;;;;;;;;;;5073480;28;20132;-49
2022/02/18 01:39:56;;;;;;;4.55;1.30;;;;;;;;;;5073415;28;20021;-51
2022/02/18 01:42:22;;;;;;;4.95;1.27;;;;;;;;;;5072535;28;20029;-50
2022/02/18 01:44:49;;;;;;;3.88;1.50;;;;;;;;;;5073176;28;20067;-48
2022/02/18 01:47:16;;;;;;;4.05;1.42;;;;;;;;;;5072819;28;20029;-49
2022/02/18 01:49:42;;;;;;;4.18;1.30;;;;;;;;;;5073624;28;20028;-48
2022/02/18 01:52:09;;;;;;;5.05;1.75;;;;;;;;;;5072224;28;20039;-47
2022/02/18 01:54:35;;;;;;;5.28;1.50;;;;;;;;;;5073188;28;20032;-49
2022/02/18 01:57:01;;;;;;;3.33;1.52;;;;;;;;;;5072632;28;20450;-54
2022/02/18 01:59:28;;;;;;;3.40;1.77;;;;;;;;;;5072741;28;20060;-48
2022/02/18 02:01:58;;;;;;;5.03;1.85;;;;;;;;;;5072894;28;20028;-51
2022/02/18 02:04:24;;;;;;;7.68;1.80;;;;;;;;;;5072377;28;20043;-48
2022/02/18 02:06:50;;;;;;;4.90;1.60;;;;;;;;;;5072833;28;20031;-48
2022/02/18 02:09:16;;;;;;;3.85;1.40;;;;;;;;;;5071607;28;20110;-49
2022/02/18 02:11:42;;;;;;;5.38;2.00;;;;;;;;;;5072083;28;20089;-49
2022/02/18 02:14:08;;;;;;;3.85;1.23;;;;;;;;;;5071818;28;20016;-49
2022/02/18 02:16:34;;;;;;;5.05;2.08;;;;;;;;;;5072058;28;20028;-52
2022/02/18 02:19:01;;;;;;;3.65;1.40;;;;;;;;;;5072331;28;20029;-55
2022/02/18 02:21:27;;;;;;;6.10;1.38;;;;;;;;;;5072210;28;20092;-51
2022/02/18 02:23:56;;;;;;;4.22;1.85;;;;;;;;;;5072976;28;20489;-49
2022/02/18 02:26:22;;;;;;;3.17;1.20;;;;;;;;;;5053310;28;20017;-50
2022/02/18 02:28:48;;;;;;;4.70;1.75;;;;;;;;;;5072833;28;20032;-54
2022/02/18 02:31:14;;;;;;;4.95;1.55;;;;;;;;;;5071305;28;20107;-48
2022/02/18 02:33:40;;;;;;;4.18;1.83;;;;;;;;;;5072952;28;20524;-49
2022/02/18 02:36:06;;;;;;;2.92;1.17;;;;;;;;;;5071807;28;20150;-48
2022/02/18 02:38:32;;;;;;;4.57;1.40;;;;;;;;;;5072565;28;20048;-48
2022/02/18 02:40:58;;;;;;;6.80;1.92;;;;;;;;;;5071969;28;20043;-49
2022/02/18 02:43:27;;;;;;;2.83;1.23;;;;;;;;;;5071436;28;20020;-50
2022/02/18 02:45:53;;;;;;;5.53;1.30;;;;;;;;;;5071819;28;20537;-48
2022/02/18 02:48:19;;;;;;;4.88;1.67;;;;;;;;;;5071596;28;20103;-48
2022/02/18 02:50:45;;;;;;;4.25;1.60;;;;;;;;;;5072166;28;20029;-50
2022/02/18 02:53:11;;;;;;;4.53;1.30;;;;;;;;;;5071450;28;20031;-49
2022/02/18 02:55:37;;;;;;;4.22;1.88;;;;;;;;;;5072092;28;20086;-50
2022/02/18 02:58:03;;;;;;;3.20;1.48;;;;;;;;;;5071269;28;20054;-55
2022/02/18 03:00:29;;;;;;;4.63;1.40;;;;;;;;;;5071811;28;20036;-48
2022/02/18 03:02:55;;;;;;;5.45;1.58;;;;;;;;;;5071944;28;20028;-48
2022/02/18 03:05:21;;;;;;;4.75;1.52;;;;;;;;;;5070718;28;20021;-49
2022/02/18 03:07:47;;;;;;;5.65;1.85;;;;;;;;;;5072406;28;20078;-49
2022/02/18 03:10:13;;;;;;;4.38;1.38;;;;;;;;;;5071093;28;20082;-49
2022/02/18 03:12:39;;;;;;;4.22;1.35;;;;;;;;;;5071635;28;20029;-48
2022/02/18 03:15:06;;;;;;;4.80;1.33;;;;;;;;;;5071043;28;20043;-56
2022/02/18 03:17:32;;;;;;;2.90;1.42;;;;;;;;;;5071521;28;20028;-49
2022/02/18 03:19:58;;;;;;;5.40;1.52;;;;;;;;;;5070387;28;20090;-49
2022/02/18 03:22:23;;;;;;;4.57;1.48;;;;;;;;;;5069629;28;20626;-51
2022/02/18 03:24:49;;;;;;;2.88;1.45;;;;;;;;;;5069958;28;20090;-48
2022/02/18 03:27:15;;;;;;;4.40;1.45;;;;;;;;;;5069176;28;20393;-52
2022/02/18 03:29:42;;;;;;;3.00;1.20;;;;;;;;;;5070545;28;20036;-49
2022/02/18 03:32:08;;;;;;;5.53;1.60;;;;;;;;;;5069271;28;20036;-52
2022/02/18 03:34:34;;;;;;;6.00;1.55;;;;;;;;;;5070550;28;20028;-54
2022/02/18 03:37:01;;;;;;;4.57;1.73;;;;;;;;;;5068374;28;20397;-51
2022/02/18 03:39:27;;;;;;;3.78;1.67;;;;;;;;;;5060816;28;20073;-53
2022/02/18 03:41:53;;;;;;;4.80;1.13;;;;;;;;;;5063508;28;20123;-53
2022/02/18 03:44:19;;;;;;;3.75;1.70;;;;;;;;;;5065860;28;20024;-48
2022/02/18 03:46:45;;;;;;;4.45;1.38;;;;;;;;;;5065695;28;20474;-50
2022/02/18 03:49:11;;;;;;;4.88;1.77;;;;;;;;;;5065395;28;20092;-55
2022/02/18 03:51:37;;;;;;;5.82;1.67;;;;;;;;;;5050224;28;20032;-48
2022/02/18 03:54:03;;;;;;;4.47;1.27;;;;;;;;;;5064557;28;20035;-54
2022/02/18 03:56:29;;;;;;;5.55;1.23;;;;;;;;;;5065528;28;20028;-48
2022/02/18 03:58:55;;;;;;;3.28;1.20;;;;;;;;;;5064886;28;20028;-51
2022/02/18 04:01:21;;;;;;;5.05;1.92;;;;;;;;;;5065473;28;20026;-52
2022/02/18 04:03:47;;;;;;;2.55;1.10;;;;;;;;;;5064941;28;20021;-50
2022/02/18 04:06:13;;;;;;;3.85;1.50;;;;;;;;;;5062492;28;20064;-48
2022/02/18 04:08:39;;;;;;;3.13;1.58;;;;;;;;;;5064267;28;20064;-51
2022/02/18 04:11:05;;;;;;;6.32;2.67;;;;;;;;;;5064660;28;20020;-57
2022/02/18 04:13:31;;;;;;;5.00;1.27;;;;;;;;;;5067808;28;20100;-50
2022/02/18 04:15:57;;;;;;;5.55;1.92;;;;;;;;;;5065795;28;20112;-51
2022/02/18 04:18:23;;;;;;;5.32;2.20;;;;;;;;;;5062611;28;20028;-51
2022/02/18 04:20:49;;;;;;;3.97;1.33;;;;;;;;;;5065475;28;20024;-48
2022/02/18 04:23:15;;;;;;;2.80;1.30;;;;;;;;;;5063633;28;20067;-51
2022/02/18 04:25:41;;;;;;;3.75;1.00;;;;;;;;;;5063992;28;20049;-50
2022/02/18 04:28:07;;;;;;;3.47;1.27;;;;;;;;;;5061624;28;20021;-53
2022/02/18 04:30:34;;;;;;;3.75;1.42;;;;;;;;;;5065077;28;20066;-51
2022/02/18 04:33:00;;;;;;;2.97;1.17;;;;;;;;;;5065396;28;20024;-49
2022/02/18 04:35:26;;;;;;;3.28;1.52;;;;;;;;;;5064295;28;20108;-51
2022/02/18 04:37:53;;;;;;;2.67;1.30;;;;;;;;;;5063928;28;20049;-49
2022/02/18 04:40:19;;;;;;;4.30;1.38;;;;;;;;;;5064125;28;20466;-48
2022/02/18 04:42:45;;;;;;;3.63;1.65;;;;;;;;;;5061996;28;20381;-48
2022/02/18 04:45:12;;;;;;;5.82;1.70;;;;;;;;;;5066219;28;20028;-49
2022/02/18 04:47:38;;;;;;;3.25;1.13;;;;;;;;;;5065320;28;20025;-48
2022/02/18 04:50:05;;;;;;;4.93;1.55;;;;;;;;;;5064443;28;20493;-55
2022/02/18 04:52:33;;;;;;;7.65;1.23;;;;;;;;;;5062300;28;20459;-50
2022/02/18 04:55:00;;;;;;;8.32;1.90;;;;;;;;;;5062333;28;20020;-48
2022/02/18 04:57:26;;;;;;;3.00;1.52;;;;;;;;;;5063226;28;20029;-49
2022/02/18 04:59:52;;;;;;;3.70;1.30;;;;;;;;;;5062619;28;20059;-50
2022/02/18 05:02:18;;;;;;;3.63;1.48;;;;;;;;;;5063728;28;20466;-48
2022/02/18 05:04:44;;;;;;;3.45;1.10;;;;;;;;;;5065325;28;20086;-53
2022/02/18 05:07:10;;;;;;;5.05;1.55;;;;;;;;;;5061199;28;20057;-52
2022/02/18 05:09:36;;;;;;;3.33;1.17;;;;;;;;;;5067083;28;20057;-48
2022/02/18 05:12:03;;;;;;;3.28;1.38;;;;;;;;;;5064259;28;20021;-54
2022/02/18 05:14:29;;;;;;;3.55;1.20;;;;;;;;;;5061444;28;20017;-47
2022/02/18 05:16:55;;;;;;;4.47;1.50;;;;;;;;;;5063336;28;20025;-49
2022/02/18 05:19:21;;;;;;;4.25;1.35;;;;;;;;;;5062134;28;20370;-50
2022/02/18 05:21:47;;;;;;;3.78;1.27;;;;;;;;;;5064280;28;20021;-49
2022/02/18 05:24:13;;;;;;;3.28;1.75;;;;;;;;;;5061010;28;20527;-51
2022/02/18 05:26:39;;;;;;;5.03;1.40;;;;;;;;;;5062952;28;20025;-48
2022/02/18 05:29:05;;;;;;;2.30;1.15;;;;;;;;;;5062355;28;20024;-54
2022/02/18 05:31:31;;;;;;;3.50;1.45;;;;;;;;;;5061872;28;20056;-47
2022/02/18 05:33:57;;;;;;;5.45;1.83;;;;;;;;;;5065699;28;20032;-50
2022/02/18 05:36:23;;;;;;;4.00;1.50;;;;;;;;;;5062648;28;20272;-48
2022/02/18 05:38:49;;;;;;;3.90;1.15;;;;;;;;;;5063027;28;20048;-48
2022/02/18 05:41:16;;;;;;;3.65;1.20;;;;;;;;;;5063091;28;20422;-47
2022/02/18 05:43:43;;;;;;;2.28;1.10;;;;;;;;;;5061544;28;20025;-48
2022/02/18 05:46:09;;;;;;;2.65;1.10;;;;;;;;;;5070843;28;20036;-46
2022/02/18 05:48:35;;;;;;;3.25;1.50;;;;;;;;;;5073232;28;20029;-48
2022/02/18 05:51:01;;;;;;;4.32;1.83;;;;;;;;;;5073284;28;20050;-48
2022/02/18 05:53:27;;;;;;;4.03;1.27;;;;;;;;;;5073008;28;20028;-47
2022/02/18 05:55:53;;;;;;;4.55;1.17;;;;;;;;;;5072883;28;20366;-52
2022/02/18 05:58:20;;;;;;;4.15;1.10;;;;;;;;;;5054527;28;20040;-52
2022/02/18 06:00:46;;;;;;;4.28;1.60;;;;;;;;;;5072898;28;20037;-52
2022/02/18 06:03:12;;;;;;;4.53;1.70;;;;;;;;;;5072003;28;20031;-50
2022/02/18 06:05:38;;;;;;;3.70;1.15;;;;;;;;;;5054213;28;20030;-49
2022/02/18 06:08:04;;;;;;;3.22;1.42;;;;;;;;;;5072825;28;20577;-54
2022/02/18 06:10:30;;;;;;;5.60;1.30;;;;;;;;;;5071971;28;20020;-51
2022/02/18 06:12:56;;;;;;;6.65;2.15;;;;;;;;;;5073158;28;20458;-48
2022/02/18 06:15:22;;;;;;;4.07;1.23;;;;;;;;;;5072066;28;20159;-48
2022/02/18 06:17:48;;;;;;;4.53;1.90;;;;;;;;;;5072753;28;20036;-46
2022/02/18 06:20:14;;;;;;;7.80;1.23;;;;;;;;;;5071747;28;20024;-47
2022/02/18 06:22:40;;;;;;;3.45;1.48;;;;;;;;;;5072907;28;20024;-48
2022/02/18 06:25:07;;;;;;;2.85;1.33;;;;;;;;;;5071966;28;20069;-53
2022/02/18 06:27:33;;;;;;;4.07;1.25;;;;;;;;;;5072934;28;20060;-46
2022/02/18 06:29:59;;;;;;;2.80;0.90;;;;;;;;;;5072280;28;20154;-50
2022/02/18 06:32:25;;;;;;;4.53;1.33;;;;;;;;;;5071712;28;20095;-48
2022/02/18 06:34:52;;;;;;;4.40;1.55;;;;;;;;;;5072510;28;20108;-46
2022/02/18 06:37:18;;;;;;;5.70;1.17;;;;;;;;;;5071162;28;20511;-46
2022/02/18 06:39:44;;;;;;;9.32;2.47;;;;;;;;;;5072117;28;20073;-47
2022/02/18 06:42:11;;;;;;;4.25;1.45;;;;;;;;;;5071325;28;20046;-44
2022/02/18 06:44:37;;;;;;;3.53;1.42;;;;;;;;;;5072222;28;20385;-46
2022/02/18 06:47:03;;;;;;;3.25;1.52;;;;;;;;;;5072540;28;20036;-52
2022/02/18 06:49:29;;;;;;;8.52;1.52;;;;;;;;;;5071388;28;20032;-46
2022/02/18 06:51:55;;;;;;;4.85;1.70;;;;;;;;;;5072206;28;20104;-46
2022/02/18 06:54:22;;;;;;;9.88;2.05;;;;;;;;;;5070703;28;20481;-46
2022/02/18 06:56:48;;;;;;;6.70;1.98;;;;;;;;;;5072120;28;20024;-46
2022/02/18 06:59:14;;;;;;;7.63;2.90;;;;;;;;;;5071667;28;20063;-47
2022/02/18 07:01:40;;;;;;;8.85;2.55;;;;;;;;;;5071875;28;20056;-49
2022/02/18 07:04:06;;;;;;;6.78;2.38;;;;;;;;;;5071397;28;20095;-55
2022/02/18 07:06:32;;;;;;;8.25;2.08;;;;;;;;;;5070686;28;20017;-49
2022/02/18 07:08:58;;;;;;;8.95;2.83;;;;;;;;;;5072037;28;20457;-48
2022/02/18 07:11:24;;;;;;;6.90;2.00;;;;;;;;;;5070655;28;20028;-47
2022/02/18 07:13:50;;;;;;;7.82;2.42;;;;;;;;;;5072015;28;20032;-48
2022/02/18 07:16:16;;;;;;;6.75;1.95;;;;;;;;;;5070538;28;20032;-49
2022/02/18 07:18:42;;;;;;;6.00;1.63;;;;;;;;;;5070988;28;20028;-52
2022/02/18 07:21:08;;;;;;;6.78;1.65;;;;;;;;;;5070828;28;20078;-54
2022/02/18 07:23:35;;;;;;;7.70;2.92;;;;;;;;;;5071167;28;20025;-47
2022/02/18 07:26:01;;;;;;;9.48;2.83;;;;;;;;;;5071209;28;20521;-47
2022/02/18 07:28:27;;;;;;;9.38;2.30;;;;;;;;;;5065232;28;20632;-47
2022/02/18 07:30:53;;;;;;;7.72;1.92;;;;;;;;;;5053868;28;20070;-47
2022/02/18 07:33:19;;;;;;;6.95;2.45;;;;;;;;;;5070365;28;20059;-49
2022/02/18 07:35:45;;;;;;;5.80;1.88;;;;;;;;;;5071296;28;20024;-50
2022/02/18 07:38:11;;;;;;;5.70;1.55;;;;;;;;;;5070561;28;20044;-53
2022/02/18 07:40:41;;;;;;;6.63;2.45;;;;;;;;;;5060523;28;20083;-48
2022/02/18 07:43:07;;;;;;;5.25;1.85;;;;;;;;;;5054642;28;20090;-55
2022/02/18 07:45:33;;;;;;;8.55;3.10;;;;;;;;;;5070545;28;20054;-49
2022/02/18 07:47:59;;;;;;;7.93;2.13;;;;;;;;;;5071498;28;20545;-47
2022/02/18 07:50:25;;;;;;;6.85;1.95;;;;;;;;;;5070570;28;20103;-47
2022/02/18 07:52:51;;;;;;;9.57;2.30;;;;;;;;;;5071397;28;20019;-50
2022/02/18 07:55:17;;;;;;;10.98;2.17;;;;;;;;;;5070623;28;20033;-48
2022/02/18 07:57:44;;;;;;;12.05;2.95;;;;;;;;;;5071260;28;20410;-47
2022/02/18 08:00:10;;;;;;;6.45;2.30;;;;;;;;;;5070737;28;20052;-54
2022/02/18 08:02:36;;;;;;;7.38;1.80;;;;;;;;;;5071416;28;20020;-48
2022/02/18 08:05:02;;;;;;;8.27;2.25;;;;;;;;;;5070682;28;20457;-48
2022/02/18 08:07:28;;;;;;;6.65;2.20;;;;;;;;;;5063862;28;20165;-53
2022/02/18 08:09:54;;;;;;;10.60;2.65;;;;;;;;;;5068774;28;20428;-49
2022/02/18 08:12:20;;;;;;;7.32;2.17;;;;;;;;;;5069390;28;20021;-48
2022/02/18 08:14:46;;;;;;;7.20;1.95;;;;;;;;;;5071215;28;20029;-47
2022/02/18 08:17:12;;;;;;;4.15;1.83;;;;;;;;;;5052431;28;20505;-49
2022/02/18 08:19:38;;;;;;;5.90;2.28;;;;;;;;;;5070596;28;20029;-48
2022/02/18 08:22:04;;;;;;;7.35;1.92;;;;;;;;;;5070613;28;20040;-47
2022/02/18 08:24:31;;;;;;;7.13;1.70;;;;;;;;;;5070280;28;20028;-47
2022/02/18 08:26:57;;;;;;;7.07;2.13;;;;;;;;;;5071132;28;20054;-49
2022/02/18 08:29:24;;;;;;;8.25;2.33;;;;;;;;;;5071387;28;20416;-48
2022/02/18 08:31:51;;;;;;;7.22;1.70;;;;;;;;;;5056461;28;20463;-49
2022/02/18 08:34:17;;;;;;;5.40;1.40;;;;;;;;;;5073840;28;20017;-51
2022/02/18 08:36:43;;;;;;;6.30;1.85;;;;;;;;;;5072017;28;20100;-51
2022/02/18 08:39:09;;;;;;;6.85;1.52;;;;;;;;;;5094948;28;20039;-51
2022/02/18 08:41:36;;;;;;;5.68;2.05;;;;;;;;;;5094535;28;20024;-49
2022/02/18 08:44:03;;;;;;;5.97;1.55;;;;;;;;;;5087421;28;20039;-49
2022/02/18 08:46:30;;;;;;;5.22;1.65;;;;;;;;;;5094689;28;20028;-50
2022/02/18 08:48:58;;;;;;;5.47;1.50;;;;;;;;;;5094900;28;20461;-48
2022/02/18 08:51:24;;;;;;;2.95;1.55;;;;;;;;;;5093833;28;20035;-51
2022/02/18 08:53:50;;;;;;;5.90;1.98;;;;;;;;;;5093632;28;20008;-52
2022/02/18 08:56:16;;;;;;;6.20;1.50;;;;;;;;;;5093487;28;20032;-47
2022/02/18 08:58:42;;;;;;;6.95;2.05;;;;;;;;;;5093796;28;20052;-47
2022/02/18 09:01:08;;;;;;;4.38;1.70;;;;;;;;;;5094536;28;20025;-49
2022/02/18 09:03:34;;;;;;;5.15;1.55;;;;;;;;;;5093733;28;20400;-48
2022/02/18 09:06:01;;;;;;;10.57;1.50;;;;;;;;;;5094105;28;20103;-47
2022/02/18 09:08:27;;;;;;;5.20;1.60;;;;;;;;;;5087467;28;20388;-48
2022/02/18 09:10:53;;;;;;;4.88;1.17;;;;;;;;;;5093095;28;20069;-47
2022/02/18 09:13:26;;;;;;;4.60;1.30;;;;;;;;;;5093201;28;20099;-49
2022/02/18 09:15:52;;;;;;;4.28;1.85;;;;;;;;;;5101630;28;20027;-47
2022/02/18 09:18:18;;;;;;;5.07;1.45;;;;;;;;;;5113581;28;20110;-50
2022/02/18 09:20:45;;;;;;;7.55;1.52;;;;;;;;;;5105841;28;20059;-49
2022/02/18 09:23:11;;;;;;;4.47;1.35;;;;;;;;;;5093501;28;20040;-55
2022/02/18 09:25:38;;;;;;;2.83;1.33;;;;;;;;;;5092807;28;20020;-52
2022/02/18 09:28:04;;;;;;;5.03;1.55;;;;;;;;;;5093595;28;20028;-49
2022/02/18 09:30:30;;;;;;;5.28;1.50;;;;;;;;;;5092412;28;20034;-50
2022/02/18 09:32:57;;;;;;;3.95;1.50;;;;;;;;;;5091668;28;20024;-54
2022/02/18 09:35:25;;;;;;;2.40;1.30;;;;;;;;;;5093350;28;20465;-50
2022/02/18 09:37:51;;;;;;;7.63;1.10;;;;;;;;;;5087857;28;20044;-46
2022/02/18 09:40:17;;;;;;;2.92;1.75;;;;;;;;;;5091156;28;20526;-46
2022/02/18 09:42:43;;;;;;;4.45;1.48;;;;;;;;;;5091536;28;20536;-46
2022/02/18 09:45:12;;;;;;;4.85;1.20;;;;;;;;;;5093894;28;20465;-48
2022/02/18 09:47:40;;;;;;;2.22;0.98;;;;;;;;;;5092919;28;20110;-49
2022/02/18 09:50:06;;;;;;;7.30;2.00;;;;;;;;;;5093622;28;20023;-47
2022/02/18 09:52:33;;;;;;;3.78;1.05;;;;;;;;;;5091932;28;20039;-46
2022/02/18 09:54:59;;;;;;;4.45;1.40;;;;;;;;;;5093780;28;20047;-47
2022/02/18 09:57:28;;;;;;;4.90;1.45;;;;;;;;;;5092438;28;20038;-47
2022/02/18 09:59:54;;;;;;;2.22;1.00;;;;;;;;;;5093191;28;20028;-46
2022/02/18 10:02:20;;;;;;;2.85;1.33;;;;;;;;;;5092110;28;20024;-48
2022/02/18 10:04:46;;;;;;;2.40;1.40;;;;;;;;;;5093216;28;20404;-46
2022/02/18 10:07:12;;;;;;;4.38;1.05;;;;;;;;;;5093073;28;20112;-53
2022/02/18 10:09:42;;;;;;;5.75;1.35;;;;;;;;;;5093834;28;20121;-48
2022/02/18 10:12:09;;;;;;;2.22;0.80;;;;;;;;;;5093841;28;20350;-49
2022/02/18 10:14:53;;;;;;;3.55;0.90;;;;;;;;;;5093085;28;20035;-46
2022/02/18 10:17:20;;;;;;;3.33;1.02;;;;;;;;;;5093090;28;20385;-47
2022/02/18 10:19:54;;;;;;;2.85;1.20;;;;;;;;;;5093530;28;20107;-45
2022/02/18 10:22:27;;;;;;;4.15;1.42;;;;;;;;;;5092779;28;20028;-50
2022/02/18 10:24:53;;;;;;;2.45;1.05;;;;;;;;;;5093579;28;20381;-46
2022/02/18 10:27:44;;;;;;;2.55;0.88;;;;;;;;;;5092800;28;20111;-49
2022/02/18 10:30:23;;;;;;;3.65;1.67;;;;;;;;;;5093556;28;20121;-46
2022/02/18 10:32:59;;;;;;;3.53;0.88;;;;;;;;;;5093638;28;20099;-47
2022/02/18 10:35:32;;;;;;;2.50;0.80;;;;;;;;;;5092931;28;20034;-48
2022/02/18 10:37:58;;;;;;;1.83;0.98;;;;;;;;;;5082326;28;20091;-50
2022/02/18 10:40:24;;;;;;;2.90;1.30;;;;;;;;;;5072414;28;20063;-48
2022/02/18 10:42:52;;;;;;;2.20;1.00;;;;;;;;;;5073018;28;20024;-46
2022/02/18 10:45:21;;;;;;;2.85;0.80;;;;;;;;;;5072212;28;20055;-46
2022/02/18 10:47:48;;;;;;;1.33;0.70;;;;;;;;;;5073019;28;20522;-48
2022/02/18 10:50:19;;;;;;;2.83;1.10;;;;;;;;;;5072493;28;20024;-53
2022/02/18 10:53:04;;;;;;;3.00;1.00;;;;;;;;;;5072180;28;20024;-47
2022/02/18 10:55:30;;;;;;;1.10;0.60;;;;;;;;;;5071972;28;20025;-49
2022/02/18 10:58:19;;;;;;;1.73;0.80;;;;;;;;;;5072644;28;20051;-46
2022/02/18 11:00:45;;;;;;;3.13;0.93;;;;;;;;;;5072682;28;20056;-47
2022/02/18 11:03:11;;;;;;;2.25;0.93;;;;;;;;;;5072855;28;20052;-47
2022/02/18 11:05:37;;;;;;;3.83;1.33;;;;;;;;;;5071922;28;20097;-48
2022/02/18 11:08:03;;;;;;;2.45;0.77;;;;;;;;;;5072335;28;20077;-46
2022/02/18 11:10:37;;;;;;;1.63;0.50;;;;;;;;;;5072143;28;20020;-50
2022/02/18 11:13:03;;;;;;;4.25;0.85;;;;;;;;;;5072342;28;20031;-46
2022/02/18 11:15:29;;;;;;;1.52;0.70;;;;;;;;;;5071753;28;20028;-50
2022/02/18 11:17:55;;;;;;;2.38;0.70;;;;;;;;;;5072312;28;20028;-46
2022/02/18 11:20:25;;;;;;;1.08;0.68;;;;;;;;;;5071659;28;20487;-48
2022/02/18 11:22:55;;;;;;;1.60;0.60;;;;;;;;;;5072257;28;20414;-51
2022/02/18 11:25:21;;;;;;;2.42;1.02;;;;;;;;;;5071597;28;20074;-46
2022/02/18 11:27:48;;;;;;;2.53;0.75;;;;;;;;;;5072292;28;20025;-46
2022/02/18 11:30:14;;;;;;;1.45;0.85;;;;;;;;;;5072282;28;20029;-46
2022/02/18 11:32:55;;;;;;;2.17;0.90;;;;;;;;;;5072050;28;20025;-46
2022/02/18 11:35:40;;;;;;;1.48;0.63;;;;;;;;;;5071763;28;20123;-49
2022/02/18 11:38:06;;;;;;;4.13;0.60;;;;;;;;;;5072179;28;20052;-47
2022/02/18 11:40:40;;;;;;;1.73;0.95;;;;;;;;;;5071144;28;20036;-45
2022/02/18 11:43:25;;;;;;;2.53;0.82;;;;;;;;;;5072178;28;20462;-50
2022/02/18 11:46:01;;;;;;;1.75;0.50;;;;;;;;;;5071980;28;20115;-49
2022/02/18 11:48:56;;;;;;;1.13;0.50;;;;;;;;;;5071161;28;20498;-46
2022/02/18 11:51:26;;;;;;;2.38;0.80;;;;;;;;;;5068897;28;20128;-50
2022/02/18 11:53:52;;;;;;;1.95;0.80;;;;;;;;;;5072029;28;20029;-48
2022/02/18 11:56:38;;;;;;;3.15;1.15;;;;;;;;;;5071236;28;20027;-46
2022/02/18 11:59:05;;;;;;;3.42;1.00;;;;;;;;;;5072031;28;20044;-48
2022/02/18 12:01:49;;;;;;;1.83;0.60;;;;;;;;;;5070915;28;20485;-50
2022/02/18 12:04:16;;;;;;;1.40;0.90;;;;;;;;;;5073673;28;20404;-49
2022/02/18 12:06:43;;;;;;;1.02;0.60;;;;;;;;;;5075900;28;20024;-47
2022/02/18 12:09:09;;;;;;;3.17;1.23;;;;;;;;;;5075611;28;20032;-46
2022/02/18 12:11:43;;;;;;;1.38;0.60;;;;;;;;;;5075111;28;20040;-47
2022/02/18 12:14:11;;;;;;;1.25;0.60;;;;;;;;;;5075736;28;20044;-51
2022/02/18 12:16:37;;;;;;;1.85;0.50;;;;;;;;;;5075137;28;20294;-48
2022/02/18 12:19:13;;;;;;;2.53;0.75;;;;;;;;;;5075642;28;20048;-46
2022/02/18 12:21:57;;;;;;;1.90;0.65;;;;;;;;;;5074758;28;20473;-46
2022/02/18 12:24:32;;;;;;;1.17;0.52;;;;;;;;;;5074999;28;20492;-46
2022/02/18 12:27:17;;;;;;;0.70;0.60;;;;;;;;;;5075321;28;20024;-45
2022/02/18 12:29:43;;;;;;;2.47;0.85;;;;;;;;;;5075121;28;20051;-45
2022/02/18 12:32:09;;;;;;;0.73;0.50;;;;;;;;;;5075778;28;20473;-49
2022/02/18 12:34:35;;;;;;;1.30;0.45;;;;;;;;;;5074878;28;20032;-46
2022/02/18 12:37:01;;;;;;;0.80;0.30;;;;;;;;;;5075082;28;20049;-46
2022/02/18 12:39:47;;;;;;;1.63;0.70;;;;;;;;;;5074755;28;20378;-46
2022/02/18 12:42:15;;;;;;;2.17;0.50;;;;;;;;;;5075259;28;20025;-45
2022/02/18 12:44:45;;;;;;;1.42;0.63;;;;;;;;;;5074814;28;20406;-48
2022/02/18 12:47:11;;;;;;;1.05;0.40;;;;;;;;;;5075076;28;20048;-47
2022/02/18 12:49:41;;;;;;;1.83;0.55;;;;;;;;;;5074607;28;20500;-47
2022/02/18 12:52:08;;;;;;;1.33;0.73;;;;;;;;;;5074980;28;20487;-49
2022/02/18 12:54:49;;;;;;;0.90;0.68;;;;;;;;;;5074155;28;20412;-46
2022/02/18 12:57:16;;;;;;;1.08;0.57;;;;;;;;;;5074367;28;20056;-48
2022/02/18 12:59:45;;;;;;;1.90;0.70;;;;;;;;;;5074438;28;20033;-51
2022/02/18 13:02:11;;;;;;;1.35;0.63;;;;;;;;;;5074874;28;20162;-49
2022/02/18 13:04:40;;;;;;;0.88;0.40;;;;;;;;;;5074370;28;20032;-45
2022/02/18 13:07:10;;;;;;;0.52;0.52;;;;;;;;;;5074840;28;20051;-49
2022/02/18 13:09:36;;;;;;;1.15;0.70;;;;;;;;;;5074177;28;20079;-50
2022/02/18 13:12:02;;;;;;;2.38;0.70;;;;;;;;;;5074629;28;20120;-47
2022/02/18 13:14:29;;;;;;;1.40;0.60;;;;;;;;;;5073547;28;20048;-47
2022/02/18 13:16:55;;;;;;;1.45;0.85;;;;;;;;;;5074201;28;20096;-49
2022/02/18 13:19:21;;;;;;;1.35;0.63;;;;;;;;;;5074263;28;20108;-48
2022/02/18 13:21:47;;;;;;;2.17;0.52;;;;;;;;;;5074397;28;20461;-49
2022/02/18 13:24:13;;;;;;;0.93;0.50;;;;;;;;;;5074403;28;20488;-50
2022/02/18 13:26:39;;;;;;;1.45;0.47;;;;;;;;;;5073690;28;20030;-49
2022/02/18 13:29:05;;;;;;;1.50;0.60;;;;;;;;;;5074674;28;20021;-48
2022/02/18 13:31:36;;;;;;;4.22;0.52;;;;;;;;;;5073512;28;20082;-50
2022/02/18 13:34:04;;;;;;;0.35;0.30;;;;;;;;;;5074373;28;20174;-49
2022/02/18 13:36:33;;;;;;;1.17;0.70;;;;;;;;;;5073681;28;20040;-49
2022/02/18 13:39:00;;;;;;;1.63;0.73;;;;;;;;;;5073772;28;20053;-48
2022/02/18 13:41:37;;;;;;;0.93;0.52;;;;;;;;;;5073444;28;20077;-48
2022/02/18 13:44:08;;;;;;;0.60;0.32;;;;;;;;;;5074409;28;20020;-48
2022/02/18 13:46:38;;;;;;;0.30;0.30;;;;;;;;;;5073565;28;20025;-50
2022/02/18 13:49:06;;;;;;;0.95;0.60;;;;;;;;;;5074097;28;20056;-46
2022/02/18 13:51:33;;;;;;;1.35;0.50;;;;;;;;;;5073297;28;20024;-46
2022/02/18 13:53:59;;;;;;;1.77;0.43;;;;;;;;;;5074030;28;20025;-46
2022/02/18 13:56:35;;;;;;;1.35;0.70;;;;;;;;;;5072997;28;20027;-46
2022/02/18 13:59:20;;;;;;;1.33;0.63;;;;;;;;;;5072602;28;20129;-46
2022/02/18 14:01:50;;;;;;;0.30;0.30;;;;;;;;;;5073753;28;20029;-45
2022/02/18 14:04:18;;;;;;;0.65;0.47;;;;;;;;;;5073747;28;20103;-46
2022/02/18 14:06:44;;;;;;;1.65;0.57;;;;;;;;;;5072907;28;20021;-46
2022/02/18 14:09:10;;;;;;;1.25;0.40;;;;;;;;;;5073393;28;20035;-45
2022/02/18 14:11:47;;;;;;;0.57;0.38;;;;;;;;;;5072565;28;20024;-47
2022/02/18 14:14:16;;;;;;;1.35;0.45;;;;;;;;;;5073414;28;20070;-48
2022/02/18 14:16:56;;;;;;;2.25;0.52;;;;;;;;;;5072764;28;20028;-46
2022/02/18 14:19:22;;;;;;;1.70;0.50;;;;;;;;;;5072834;28;20036;-50
2022/02/18 14:21:58;;;;;;;1.15;0.30;;;;;;;;;;5073311;28;20025;-46
2022/02/18 14:24:34;;;;;;;2.40;0.60;;;;;;;;;;5072748;28;20024;-47
2022/02/18 14:27:00;;;;;;;3.30;1.10;;;;;;;;;;5072444;28;20024;-44
2022/02/18 14:29:26;;;;;;;3.03;0.98;;;;;;;;;;5054457;28;20115;-44
2022/02/18 14:31:56;;;;;;;2.67;0.98;;;;;;;;;;5073119;28;20029;-45
2022/02/18 14:34:23;;;;;;;5.00;0.98;;;;;;;;;;5054595;28;20477;-44
2022/02/18 14:36:49;;;;;;;5.65;0.90;;;;;;;;;;5072884;28;20074;-45
2022/02/18 14:39:21;;;;;;;2.65;1.08;;;;;;;;;;5073323;28;20016;-44
2022/02/18 14:42:01;;;;;;;4.10;0.80;;;;;;;;;;5072713;28;20090;-47
2022/02/18 14:44:46;;;;;;;5.68;1.05;;;;;;;;;;5066650;28;20032;-46